sensor_id;sensor_type;location;lat;lon;timestamp;temperature;humidity
14521;DHT22;7347;50.844;4.490;2024-01-15T08:57:29;3.00;99.90
14521;DHT22;7347;50.844;4.490;2024-01-15T08:59:56;3.00;99.90
14521;DHT22;7347;50.844;4.490;2024-01-15T09:02:24;3.10;99.90
14521;DHT22;7347;50.844;4.490;2024-01-15T09:04:50;3.20;99.90
14521;DHT22;7347;50.844;4.490;2024-01-15T09:07:17;3.10;99.90
14521;DHT22;7347;50.844;4.490;2024-01-15T09:09:44;2.90;99.90
14521;DHT22;7347;50.844;4.490;2024-01-15T09:12:11;3.00;99.90
14521;DHT22;7347;50.844;4.490;2024-01-15T09:14:42;3.00;99.90
14521;DHT22;7347;50.844;4.490;2024-01-15T09:17:09;2.90;99.90
14521;DHT22;7347;50.844;4.490;2024-01-15T09:19:36;3.00;99.90
14521;DHT22;7347;50.844;4.490;2024-01-15T09:22:04;2.90;99.90
14521;DHT22;7347;50.844;4.490;2024-01-15T09:24:31;2.90;99.90
14521;DHT22;7347;50.844;4.490;2024-01-15T09:26:58;2.90;99.90
14521;DHT22;7347;50.844;4.490;2024-01-15T09:29:25;2.80;99.90
14521;DHT22;7347;50.844;4.490;2024-01-15T09:31:54;2.80;99.90
14521;DHT22;7347;50.844;4.490;2024-01-15T09:34:21;2.80;99.90
14521;DHT22;7347;50.844;4.490;2024-01-15T09:36:48;2.90;99.90
14521;DHT22;7347;50.844;4.490;2024-01-15T09:39:15;3.00;99.90
14521;DHT22;7347;50.844;4.490;2024-01-15T09:41:43;3.10;99.90
14521;DHT22;7347;50.844;4.490;2024-01-15T09:44:10;3.10;99.90
14521;DHT22;7347;50.844;4.490;2024-01-15T09:46:38;3.30;99.90
14521;DHT22;7347;50.844;4.490;2024-01-15T09:49:08;3.30;99.90
14521;DHT22;7347;50.844;4.490;2024-01-15T09:51:35;3.20;99.90
14521;DHT22;7347;50.844;4.490;2024-01-15T09:54:03;3.30;99.90
14521;DHT22;7347;50.844;4.490;2024-01-15T09:56:31;3.30;99.90
14521;DHT22;7347;50.844;4.490;2024-01-15T09:58:58;3.50;99.90
14521;DHT22;7347;50.844;4.490;2024-01-15T10:01:25;3.40;99.90
14521;DHT22;7347;50.844;4.490;2024-01-15T10:03:54;3.40;99.90
14521;DHT22;7347;50.844;4.490;2024-01-15T10:06:22;3.40;99.90
14521;DHT22;7347;50.844;4.490;2024-01-15T10:08:51;3.40;99.90
14521;DHT22;7347;50.844;4.490;2024-01-15T10:11:18;3.60;99.90
14521;DHT22;7347;50.844;4.490;2024-01-15T10:13:45;3.60;99.90
14521;DHT22;7347;50.844;4.490;2024-01-15T10:16:12;3.70;99.90
14521;DHT22;7347;50.844;4.490;2024-01-15T10:18:39;3.70;99.90
14521;DHT22;7347;50.844;4.490;2024-01-15T10:21:06;3.70;99.90
14521;DHT22;7347;50.844;4.490;2024-01-15T10:23:35;3.90;99.90
14521;DHT22;7347;50.844;4.490;2024-01-15T10:26:03;3.90;99.90
14521;DHT22;7347;50.844;4.490;2024-01-15T10:28:30;3.90;99.90
14521;DHT22;7347;50.844;4.490;2024-01-15T10:30:58;3.90;99.90
14521;DHT22;7347;50.844;4.490;2024-01-15T10:33:26;3.90;99.90
14521;DHT22;7347;50.844;4.490;2024-01-15T10:35:53;4.00;99.90
14521;DHT22;7347;50.844;4.490;2024-01-15T10:38:21;3.90;99.90
14521;DHT22;7347;50.844;4.490;2024-01-15T10:40:51;4.00;99.90
14521;DHT22;7347;50.844;4.490;2024-01-15T10:43:19;4.00;99.90
14521;DHT22;7347;50.844;4.490;2024-01-15T10:45:46;3.90;99.90
14521;DHT22;7347;50.844;4.490;2024-01-15T10:48:13;4.00;99.90
14521;DHT22;7347;50.844;4.490;2024-01-15T10:50:40;3.90;99.90
14521;DHT22;7347;50.844;4.490;2024-01-15T10:53:08;4.00;99.90
14521;DHT22;7347;50.844;4.490;2024-01-15T10:55:38;4.00;99.90
14521;DHT22;7347;50.844;4.490;2024-01-15T10:58:15;4.10;99.90
14521;DHT22;7347;50.844;4.490;2024-01-15T11:00:43;4.20;99.90
14521;DHT22;7347;50.844;4.490;2024-01-15T11:03:10;4.20;99.90
14521;DHT22;7347;50.844;4.490;2024-01-15T11:05:38;4.20;99.90
14521;DHT22;7347;50.844;4.490;2024-01-15T11:08:06;4.20;99.90
14521;DHT22;7347;50.844;4.490;2024-01-15T11:10:43;4.40;99.90
14521;DHT22;7347;50.844;4.490;2024-01-15T11:13:18;4.60;99.90
14521;DHT22;7347;50.844;4.490;2024-01-15T11:15:58;4.70;99.90
14521;DHT22;7347;50.844;4.490;2024-01-15T11:18:27;5.00;99.90
14521;DHT22;7347;50.844;4.490;2024-01-15T11:21:25;5.20;99.90
14521;DHT22;7347;50.844;4.490;2024-01-15T11:23:54;5.20;99.90
14521;DHT22;7347;50.844;4.490;2024-01-15T11:26:30;5.30;99.90
14521;DHT22;7347;50.844;4.490;2024-01-15T11:28:59;5.40;99.90
14521;DHT22;7347;50.844;4.490;2024-01-15T11:31:28;5.30;99.90
14521;DHT22;7347;50.844;4.490;2024-01-15T11:33:55;5.20;99.90
14521;DHT22;7347;50.844;4.490;2024-01-15T11:37:01;5.20;99.90
14521;DHT22;7347;50.844;4.490;2024-01-15T11:39:41;5.10;99.90
14521;DHT22;7347;50.844;4.490;2024-01-15T11:42:13;5.10;99.90
14521;DHT22;7347;50.844;4.490;2024-01-15T11:44:42;5.20;99.90
14521;DHT22;7347;50.844;4.490;2024-01-15T11:47:11;5.10;99.90
14521;DHT22;7347;50.844;4.490;2024-01-15T11:50:00;5.10;99.90
14521;DHT22;7347;50.844;4.490;2024-01-15T11:52:32;5.20;99.90
14521;DHT22;7347;50.844;4.490;2024-01-15T11:55:07;5.20;99.90
14521;DHT22;7347;50.844;4.490;2024-01-15T11:57:41;5.30;99.90
14521;DHT22;7347;50.844;4.490;2024-01-15T12:00:11;5.30;99.90
14521;DHT22;7347;50.844;4.490;2024-01-15T12:02:39;5.40;99.90
14521;DHT22;7347;50.844;4.490;2024-01-15T12:05:08;5.20;99.90
14521;DHT22;7347;50.844;4.490;2024-01-15T12:07:35;5.10;99.90
14521;DHT22;7347;50.844;4.490;2024-01-15T12:10:02;5.00;99.90
14521;DHT22;7347;50.844;4.490;2024-01-15T12:12:50;4.90;99.90
14521;DHT22;7347;50.844;4.490;2024-01-15T12:15:21;5.00;99.90
14521;DHT22;7347;50.844;4.490;2024-01-15T12:17:48;5.00;99.90
14521;DHT22;7347;50.844;4.490;2024-01-15T12:20:16;5.10;99.90
14521;DHT22;7347;50.844;4.490;2024-01-15T12:22:44;4.90;99.90
14521;DHT22;7347;50.844;4.490;2024-01-15T12:25:11;4.90;99.90
14521;DHT22;7347;50.844;4.490;2024-01-15T12:27:38;4.80;99.90
14521;DHT22;7347;50.844;4.490;2024-01-15T12:30:06;4.70;99.90
14521;DHT22;7347;50.844;4.490;2024-01-15T12:32:35;4.70;99.90
14521;DHT22;7347;50.844;4.490;2024-01-15T12:35:03;4.70;99.90
14521;DHT22;7347;50.844;4.490;2024-01-15T12:37:30;4.80;99.90
14521;DHT22;7347;50.844;4.490;2024-01-15T12:39:59;4.80;99.90
14521;DHT22;7347;50.844;4.490;2024-01-15T12:42:26;4.80;99.90
14521;DHT22;7347;50.844;4.490;2024-01-15T12:44:56;4.90;99.90
14521;DHT22;7347;50.844;4.490;2024-01-15T12:47:23;4.90;99.90
14521;DHT22;7347;50.844;4.490;2024-01-15T12:49:53;5.00;99.90
14521;DHT22;7347;50.844;4.490;2024-01-15T12:52:20;4.80;99.90
14521;DHT22;7347;50.844;4.490;2024-01-15T12:54:48;4.70;99.90
14521;DHT22;7347;50.844;4.490;2024-01-15T12:57:15;4.60;99.90
14521;DHT22;7347;50.844;4.490;2024-01-15T12:59:42;4.50;99.90
14521;DHT22;7347;50.844;4.490;2024-01-15T13:02:09;4.50;99.90
14521;DHT22;7347;50.844;4.490;2024-01-15T13:04:37;4.40;99.90
14521;DHT22;7347;50.844;4.490;2024-01-15T13:07:05;4.50;99.90
14521;DHT22;7347;50.844;4.490;2024-01-15T13:09:33;4.60;99.90
14521;DHT22;7347;50.844;4.490;2024-01-15T13:12:00;4.80;99.90
14521;DHT22;7347;50.844;4.490;2024-01-15T13:14:27;4.90;99.90
14521;DHT22;7347;50.844;4.490;2024-01-15T13:16:55;4.90;99.90
14521;DHT22;7347;50.844;4.490;2024-01-15T13:19:22;4.90;99.90
14521;DHT22;7347;50.844;4.490;2024-01-15T13:21:49;5.00;99.90
14521;DHT22;7347;50.844;4.490;2024-01-15T13:24:18;5.00;99.90
14521;DHT22;7347;50.844;4.490;2024-01-15T13:26:45;5.10;99.90
14521;DHT22;7347;50.844;4.490;2024-01-15T13:29:13;5.00;99.90
14521;DHT22;7347;50.844;4.490;2024-01-15T13:31:40;5.00;99.90
14521;DHT22;7347;50.844;4.490;2024-01-15T13:34:07;5.00;99.90
14521;DHT22;7347;50.844;4.490;2024-01-15T13:36:34;5.00;99.90
14521;DHT22;7347;50.844;4.490;2024-01-15T13:39:04;5.00;99.90
14521;DHT22;7347;50.844;4.490;2024-01-15T13:41:35;4.90;99.90
14521;DHT22;7347;50.844;4.490;2024-01-15T13:44:02;4.80;99.90
14521;DHT22;7347;50.844;4.490;2024-01-15T13:46:29;4.80;99.90
14521;DHT22;7347;50.844;4.490;2024-01-15T13:48:56;4.90;99.90
14521;DHT22;7347;50.844;4.490;2024-01-15T13:51:23;4.80;99.90
14521;DHT22;7347;50.844;4.490;2024-01-15T13:53:50;4.80;99.90
14521;DHT22;7347;50.844;4.490;2024-01-15T13:56:18;4.80;99.90
14521;DHT22;7347;50.844;4.490;2024-01-15T13:58:46;5.00;99.90
14521;DHT22;7347;50.844;4.490;2024-01-15T14:01:15;4.50;99.90
14521;DHT22;7347;50.844;4.490;2024-01-15T14:03:43;3.90;99.90
14521;DHT22;7347;50.844;4.490;2024-01-15T14:06:09;3.50;99.90
14521;DHT22;7347;50.844;4.490;2024-01-15T14:08:37;3.00;99.90
14521;DHT22;7347;50.844;4.490;2024-01-15T14:11:04;2.90;99.90
14521;DHT22;7347;50.844;4.490;2024-01-15T14:13:32;2.70;99.90
14521;DHT22;7347;50.844;4.490;2024-01-15T14:16:00;2.70;99.90
14521;DHT22;7347;50.844;4.490;2024-01-15T14:18:27;2.60;99.90
14521;DHT22;7347;50.844;4.490;2024-01-15T14:20:54;2.50;99.90
14521;DHT22;7347;50.844;4.490;2024-01-15T14:23:21;2.70;99.90
14521;DHT22;7347;50.844;4.490;2024-01-15T14:25:48;2.60;99.90
14521;DHT22;7347;50.844;4.490;2024-01-15T14:28:15;2.70;99.90
14521;DHT22;7347;50.844;4.490;2024-01-15T14:30:42;2.90;99.90
14521;DHT22;7347;50.844;4.490;2024-01-15T14:33:10;3.00;99.90
14521;DHT22;7347;50.844;4.490;2024-01-15T14:35:37;3.10;99.90
14521;DHT22;7347;50.844;4.490;2024-01-15T14:38:04;3.20;99.90
14521;DHT22;7347;50.844;4.490;2024-01-15T14:40:31;3.50;99.90
14521;DHT22;7347;50.844;4.490;2024-01-15T14:42:58;3.70;99.90
14521;DHT22;7347;50.844;4.490;2024-01-15T14:45:25;3.80;99.90
14521;DHT22;7347;50.844;4.490;2024-01-15T14:47:52;3.70;99.90
14521;DHT22;7347;50.844;4.490;2024-01-15T14:50:21;3.30;99.90
14521;DHT22;7347;50.844;4.490;2024-01-15T14:52:49;3.10;99.90
14521;DHT22;7347;50.844;4.490;2024-01-15T14:55:15;2.90;99.90
14521;DHT22;7347;50.844;4.490;2024-01-15T14:57:42;2.90;99.90
14521;DHT22;7347;50.844;4.490;2024-01-15T15:00:09;3.00;99.90
14521;DHT22;7347;50.844;4.490;2024-01-15T15:02:38;2.90;99.90
14521;DHT22;7347;50.844;4.490;2024-01-15T15:05:06;2.90;99.90
14521;DHT22;7347;50.844;4.490;2024-01-15T15:07:35;2.80;99.90
14521;DHT22;7347;50.844;4.490;2024-01-15T15:10:02;2.70;99.90
14521;DHT22;7347;50.844;4.490;2024-01-15T15:12:30;2.60;99.90
14521;DHT22;7347;50.844;4.490;2024-01-15T15:14:57;2.50;99.90
14521;DHT22;7347;50.844;4.490;2024-01-15T15:17:24;2.60;99.90
14521;DHT22;7347;50.844;4.490;2024-01-15T15:19:51;2.60;99.90
14521;DHT22;7347;50.844;4.490;2024-01-15T15:22:19;2.70;99.90
14521;DHT22;7347;50.844;4.490;2024-01-15T15:24:47;2.70;99.90
14521;DHT22;7347;50.844;4.490;2024-01-15T15:27:14;2.70;99.90
14521;DHT22;7347;50.844;4.490;2024-01-15T15:29:41;2.60;99.90
14521;DHT22;7347;50.844;4.490;2024-01-15T15:32:08;2.50;99.90
14521;DHT22;7347;50.844;4.490;2024-01-15T15:34:35;2.40;99.90
14521;DHT22;7347;50.844;4.490;2024-01-15T15:37:01;2.40;99.90
14521;DHT22;7347;50.844;4.490;2024-01-15T15:39:28;2.40;99.90
14521;DHT22;7347;50.844;4.490;2024-01-15T15:41:57;2.40;99.90
14521;DHT22;7347;50.844;4.490;2024-01-15T15:44:24;2.40;99.90
14521;DHT22;7347;50.844;4.490;2024-01-15T15:46:51;2.40;99.90
14521;DHT22;7347;50.844;4.490;2024-01-15T15:49:18;2.40;99.90
14521;DHT22;7347;50.844;4.490;2024-01-15T15:51:45;2.30;99.90
14521;DHT22;7347;50.844;4.490;2024-01-15T15:54:13;2.30;99.90
14521;DHT22;7347;50.844;4.490;2024-01-15T15:56:40;2.30;99.90
14521;DHT22;7347;50.844;4.490;2024-01-15T15:59:09;2.40;99.90
14521;DHT22;7347;50.844;4.490;2024-01-15T16:01:36;2.40;99.90
14521;DHT22;7347;50.844;4.490;2024-01-15T16:04:03;2.30;99.90
14521;DHT22;7347;50.844;4.490;2024-01-15T16:06:30;2.30;99.90
14521;DHT22;7347;50.844;4.490;2024-01-15T16:08:57;2.20;99.90
14521;DHT22;7347;50.844;4.490;2024-01-15T16:11:24;2.10;99.90
14521;DHT22;7347;50.844;4.490;2024-01-15T16:13:50;2.20;99.90
14521;DHT22;7347;50.844;4.490;2024-01-15T16:16:19;2.30;99.90
14521;DHT22;7347;50.844;4.490;2024-01-15T16:18:46;2.10;99.90
14521;DHT22;7347;50.844;4.490;2024-01-15T16:21:13;2.10;99.90
14521;DHT22;7347;50.844;4.490;2024-01-15T16:23:40;2.10;99.90
14521;DHT22;7347;50.844;4.490;2024-01-15T16:26:07;2.10;99.90
14521;DHT22;7347;50.844;4.490;2024-01-15T16:28:34;2.10;99.90
14521;DHT22;7347;50.844;4.490;2024-01-15T16:31:00;2.10;99.90
14521;DHT22;7347;50.844;4.490;2024-01-15T16:33:28;2.00;99.90
14521;DHT22;7347;50.844;4.490;2024-01-15T16:35:55;2.00;99.90
14521;DHT22;7347;50.844;4.490;2024-01-15T16:38:23;2.10;99.90
14521;DHT22;7347;50.844;4.490;2024-01-15T16:40:50;2.00;99.90
14521;DHT22;7347;50.844;4.490;2024-01-15T16:43:17;2.00;99.90
14521;DHT22;7347;50.844;4.490;2024-01-15T16:45:44;2.00;99.90
14521;DHT22;7347;50.844;4.490;2024-01-15T16:48:11;2.00;99.90
14521;DHT22;7347;50.844;4.490;2024-01-15T16:50:39;2.10;99.90
14521;DHT22;7347;50.844;4.490;2024-01-15T16:53:06;2.20;99.90
14521;DHT22;7347;50.844;4.490;2024-01-15T16:55:34;2.30;99.90
14521;DHT22;7347;50.844;4.490;2024-01-15T16:58:00;2.30;99.90
14521;DHT22;7347;50.844;4.490;2024-01-15T17:00:27;2.30;99.90
14521;DHT22;7347;50.844;4.490;2024-01-15T17:02:54;2.20;99.90
14521;DHT22;7347;50.844;4.490;2024-01-15T17:05:22;2.10;99.90
14521;DHT22;7347;50.844;4.490;2024-01-15T17:07:50;2.00;99.90
14521;DHT22;7347;50.844;4.490;2024-01-15T17:10:17;1.80;99.90
14521;DHT22;7347;50.844;4.490;2024-01-15T17:12:44;1.80;99.90
14521;DHT22;7347;50.844;4.490;2024-01-15T17:15:13;1.90;99.90
14521;DHT22;7347;50.844;4.490;2024-01-15T17:17:39;1.90;99.90
14521;DHT22;7347;50.844;4.490;2024-01-15T17:20:07;2.00;99.90
14521;DHT22;7347;50.844;4.490;2024-01-15T17:22:36;2.10;99.90
14521;DHT22;7347;50.844;4.490;2024-01-15T17:25:06;2.20;99.90
14521;DHT22;7347;50.844;4.490;2024-01-15T17:27:33;2.30;99.90
14521;DHT22;7347;50.844;4.490;2024-01-15T17:30:00;2.30;99.90
14521;DHT22;7347;50.844;4.490;2024-01-15T17:32:26;2.20;99.90
14521;DHT22;7347;50.844;4.490;2024-01-15T17:34:53;2.10;99.90
14521;DHT22;7347;50.844;4.490;2024-01-15T17:37:20;2.10;99.90
14521;DHT22;7347;50.844;4.490;2024-01-15T17:39:47;2.20;99.90
14521;DHT22;7347;50.844;4.490;2024-01-15T17:42:15;2.40;99.90
14521;DHT22;7347;50.844;4.490;2024-01-15T17:44:43;2.30;99.90
14521;DHT22;7347;50.844;4.490;2024-01-15T17:47:10;2.40;99.90
14521;DHT22;7347;50.844;4.490;2024-01-15T17:49:37;2.30;99.90
14521;DHT22;7347;50.844;4.490;2024-01-15T17:52:04;2.30;99.90
14521;DHT22;7347;50.844;4.490;2024-01-15T17:54:31;2.30;99.90
14521;DHT22;7347;50.844;4.490;2024-01-15T17:56:58;2.40;99.90
14521;DHT22;7347;50.844;4.490;2024-01-15T17:59:26;2.60;99.90
14521;DHT22;7347;50.844;4.490;2024-01-15T18:01:53;2.90;99.90
14521;DHT22;7347;50.844;4.490;2024-01-15T18:04:20;3.10;99.90
14521;DHT22;7347;50.844;4.490;2024-01-15T18:06:48;3.20;99.90
14521;DHT22;7347;50.844;4.490;2024-01-15T18:09:15;3.20;99.90
14521;DHT22;7347;50.844;4.490;2024-01-15T18:11:43;3.10;99.90
14521;DHT22;7347;50.844;4.490;2024-01-15T18:14:10;3.00;99.90
14521;DHT22;7347;50.844;4.490;2024-01-15T18:16:39;2.80;99.90
14521;DHT22;7347;50.844;4.490;2024-01-15T18:19:06;2.80;99.90
14521;DHT22;7347;50.844;4.490;2024-01-15T18:21:32;2.80;99.90
14521;DHT22;7347;50.844;4.490;2024-01-15T18:23:59;2.80;99.90
14521;DHT22;7347;50.844;4.490;2024-01-15T18:26:26;2.70;99.90
14521;DHT22;7347;50.844;4.490;2024-01-15T18:28:53;2.60;99.90
14521;DHT22;7347;50.844;4.490;2024-01-15T18:31:20;2.60;99.90
14521;DHT22;7347;50.844;4.490;2024-01-15T18:33:48;2.50;99.90
14521;DHT22;7347;50.844;4.490;2024-01-15T18:36:16;2.50;99.90
14521;DHT22;7347;50.844;4.490;2024-01-15T18:38:42;2.50;99.90
14521;DHT22;7347;50.844;4.490;2024-01-15T18:41:19;2.40;99.90
14521;DHT22;7347;50.844;4.490;2024-01-15T18:43:46;2.50;99.90
14521;DHT22;7347;50.844;4.490;2024-01-15T18:46:13;2.40;99.90
14521;DHT22;7347;50.844;4.490;2024-01-15T18:48:40;2.40;99.90
14521;DHT22;7347;50.844;4.490;2024-01-15T18:51:08;2.40;99.90
14521;DHT22;7347;50.844;4.490;2024-01-15T18:53:35;2.30;99.90
14521;DHT22;7347;50.844;4.490;2024-01-15T18:56:02;2.10;99.90
14521;DHT22;7347;50.844;4.490;2024-01-15T18:58:29;2.20;99.90
14521;DHT22;7347;50.844;4.490;2024-01-15T19:00:56;2.10;99.90
14521;DHT22;7347;50.844;4.490;2024-01-15T19:03:23;2.10;99.90
14521;DHT22;7347;50.844;4.490;2024-01-15T19:05:50;1.90;99.90
14521;DHT22;7347;50.844;4.490;2024-01-15T19:08:18;1.90;99.90
14521;DHT22;7347;50.844;4.490;2024-01-15T19:10:45;1.80;99.90
14521;DHT22;7347;50.844;4.490;2024-01-15T19:13:12;1.80;99.90
14521;DHT22;7347;50.844;4.490;2024-01-15T19:15:38;1.80;99.90
14521;DHT22;7347;50.844;4.490;2024-01-15T19:18:05;1.80;99.90
14521;DHT22;7347;50.844;4.490;2024-01-15T19:20:32;1.80;99.90
14521;DHT22;7347;50.844;4.490;2024-01-15T19:22:59;1.90;99.90
14521;DHT22;7347;50.844;4.490;2024-01-15T19:25:28;2.10;99.90
14521;DHT22;7347;50.844;4.490;2024-01-15T19:27:55;2.20;99.90
14521;DHT22;7347;50.844;4.490;2024-01-15T19:30:22;2.30;99.90
14521;DHT22;7347;50.844;4.490;2024-01-15T19:32:49;2.30;99.90
14521;DHT22;7347;50.844;4.490;2024-01-15T19:35:15;2.30;99.90
14521;DHT22;7347;50.844;4.490;2024-01-15T19:37:42;2.40;99.90
14521;DHT22;7347;50.844;4.490;2024-01-15T19:40:10;2.30;99.90
14521;DHT22;7347;50.844;4.490;2024-01-15T19:42:38;2.30;99.90
14521;DHT22;7347;50.844;4.490;2024-01-15T19:45:07;2.30;99.90
14521;DHT22;7347;50.844;4.490;2024-01-15T19:47:34;2.40;99.90
14521;DHT22;7347;50.844;4.490;2024-01-15T19:50:01;2.40;99.90
14521;DHT22;7347;50.844;4.490;2024-01-15T19:52:28;2.40;99.90
14521;DHT22;7347;50.844;4.490;2024-01-15T19:54:55;2.50;99.90
14521;DHT22;7347;50.844;4.490;2024-01-15T19:57:22;2.50;99.90
14521;DHT22;7347;50.844;4.490;2024-01-15T19:59:51;2.50;99.90
14521;DHT22;7347;50.844;4.490;2024-01-15T20:02:19;2.60;99.90
14521;DHT22;7347;50.844;4.490;2024-01-15T20:04:45;2.50;99.90
14521;DHT22;7347;50.844;4.490;2024-01-15T20:07:13;2.50;99.90
14521;DHT22;7347;50.844;4.490;2024-01-15T20:09:39;2.50;99.90
14521;DHT22;7347;50.844;4.490;2024-01-15T20:12:07;2.60;99.90
14521;DHT22;7347;50.844;4.490;2024-01-15T20:14:34;2.50;99.90
14521;DHT22;7347;50.844;4.490;2024-01-15T20:17:02;2.60;99.90
14521;DHT22;7347;50.844;4.490;2024-01-15T20:19:30;2.70;99.90
14521;DHT22;7347;50.844;4.490;2024-01-15T20:21:57;2.60;99.90
14521;DHT22;7347;50.844;4.490;2024-01-15T20:24:24;2.60;99.90
14521;DHT22;7347;50.844;4.490;2024-01-15T20:26:51;2.60;99.90
14521;DHT22;7347;50.844;4.490;2024-01-15T20:29:18;2.40;99.90
14521;DHT22;7347;50.844;4.490;2024-01-15T20:31:45;2.50;99.90
14521;DHT22;7347;50.844;4.490;2024-01-15T20:34:14;2.40;99.90
14521;DHT22;7347;50.844;4.490;2024-01-15T20:36:41;2.40;99.90
14521;DHT22;7347;50.844;4.490;2024-01-15T20:39:08;2.40;99.90
14521;DHT22;7347;50.844;4.490;2024-01-15T20:41:35;2.40;99.90
14521;DHT22;7347;50.844;4.490;2024-01-15T20:44:02;2.40;99.90
14521;DHT22;7347;50.844;4.490;2024-01-15T20:46:29;2.40;99.90
14521;DHT22;7347;50.844;4.490;2024-01-15T20:48:55;2.40;99.90
14521;DHT22;7347;50.844;4.490;2024-01-15T20:51:24;2.30;99.90
14521;DHT22;7347;50.844;4.490;2024-01-15T20:53:50;2.30;99.90
14521;DHT22;7347;50.844;4.490;2024-01-15T20:56:19;2.30;99.90
14521;DHT22;7347;50.844;4.490;2024-01-15T20:58:46;2.40;99.90
14521;DHT22;7347;50.844;4.490;2024-01-15T21:01:13;2.40;99.90
14521;DHT22;7347;50.844;4.490;2024-01-15T21:03:40;2.40;99.90
14521;DHT22;7347;50.844;4.490;2024-01-15T21:06:06;2.40;99.90
14521;DHT22;7347;50.844;4.490;2024-01-15T21:08:35;2.40;99.90
14521;DHT22;7347;50.844;4.490;2024-01-15T21:11:03;2.30;99.90
14521;DHT22;7347;50.844;4.490;2024-01-15T21:13:29;2.30;99.90
14521;DHT22;7347;50.844;4.490;2024-01-15T21:15:58;2.30;99.90
14521;DHT22;7347;50.844;4.490;2024-01-15T21:18:25;2.30;99.90
14521;DHT22;7347;50.844;4.490;2024-01-15T21:20:52;2.30;99.90
14521;DHT22;7347;50.844;4.490;2024-01-15T21:23:20;2.30;99.90
14521;DHT22;7347;50.844;4.490;2024-01-15T21:25:48;2.30;99.90
14521;DHT22;7347;50.844;4.490;2024-01-15T21:28:15;2.40;99.90
14521;DHT22;7347;50.844;4.490;2024-01-15T21:30:43;2.40;99.90
14521;DHT22;7347;50.844;4.490;2024-01-15T21:33:12;2.40;99.90
14521;DHT22;7347;50.844;4.490;2024-01-15T21:35:38;2.40;99.90
14521;DHT22;7347;50.844;4.490;2024-01-15T21:38:05;2.30;99.90
14521;DHT22;7347;50.844;4.490;2024-01-15T21:40:33;2.20;99.90
14521;DHT22;7347;50.844;4.490;2024-01-15T21:43:01;2.20;99.90
14521;DHT22;7347;50.844;4.490;2024-01-15T21:45:28;2.30;99.90
14521;DHT22;7347;50.844;4.490;2024-01-15T21:47:54;2.40;99.90
14521;DHT22;7347;50.844;4.490;2024-01-15T21:50:21;2.40;99.90
14521;DHT22;7347;50.844;4.490;2024-01-15T21:52:49;2.50;99.90
14521;DHT22;7347;50.844;4.490;2024-01-15T21:55:16;2.50;99.90
14521;DHT22;7347;50.844;4.490;2024-01-15T21:57:43;2.50;99.90
14521;DHT22;7347;50.844;4.490;2024-01-15T22:00:13;2.60;99.90
14521;DHT22;7347;50.844;4.490;2024-01-15T22:02:41;2.50;99.90
14521;DHT22;7347;50.844;4.490;2024-01-15T22:05:10;2.50;99.90
14521;DHT22;7347;50.844;4.490;2024-01-15T22:07:40;2.60;99.90
14521;DHT22;7347;50.844;4.490;2024-01-15T22:10:08;2.60;99.90
14521;DHT22;7347;50.844;4.490;2024-01-15T22:12:35;2.60;99.90
14521;DHT22;7347;50.844;4.490;2024-01-15T22:15:01;2.60;99.90
14521;DHT22;7347;50.844;4.490;2024-01-15T22:17:30;2.60;99.90
14521;DHT22;7347;50.844;4.490;2024-01-15T22:19:57;2.60;99.90
14521;DHT22;7347;50.844;4.490;2024-01-15T22:22:23;2.60;99.90
14521;DHT22;7347;50.844;4.490;2024-01-15T22:24:50;2.60;99.90
14521;DHT22;7347;50.844;4.490;2024-01-15T22:27:17;2.60;99.90
14521;DHT22;7347;50.844;4.490;2024-01-15T22:29:44;2.60;99.90
14521;DHT22;7347;50.844;4.490;2024-01-15T22:32:12;2.70;99.90
14521;DHT22;7347;50.844;4.490;2024-01-15T22:34:40;2.70;99.90
